Main page
METAR-TAF:

METAR-TAF

Airports :

Mashhad International Airport

Mashhad, Iran

latitude: 36-16N, longitude: 059-38E, elevation: 989 m

Current weather observation

The report was made 18 minutes ago, at 14:00 UTC
Wind 12 kt from the East
Temperature 33°C
Humidity 13%
Pressure 1010 hPa
Visibility 10 km or more
no clouds below 1500 m and no cumulonimbus

METAR: OIMM 181400Z 08012KT CAVOK 33/01 Q1009 A2982

Time: 18:48 (14:18 UTC)

Forecast

The report was made 2 hours and 58 minutes ago, at 11:20 UTC
Forecast valid from 18 at 12 UTC to 19 at 18 UTC
Wind 8 kt from the South
Visibility 10 km or more
no clouds below 1500 m and no cumulonimbus
Temporary
from 18 at 12 UTC to 18 at 18 UTC
Wind 17 kt from the East

TAF: OIMM 181120Z 1812/1918 18004MPS CAVOK TEMPO 1812/1818 09009MPS

Weather observations and forecasts of more than 4000 airports (METAR and TAF reports).

The available stations are represented by yellow and red dots on the map.

Hover mouse over dot to see the name of the station.

Then click to see weather observations and forecasts.

To change the map : click on the green buttons with a black cross to zoom in, on the green button with a dash to zoom out, or on the green arrows for adjacent maps.


METAR-TAF: